createdAt,value
2019-01-21T00:00:54.390Z,68.80
2019-01-21T00:03:36.519Z,75.80
2019-01-21T00:06:06.056Z,73.40
2019-01-21T00:08:35.582Z,66.77
2019-01-21T00:11:05.056Z,70.60
2019-01-21T00:13:34.619Z,70.23
2019-01-21T00:16:04.228Z,63.07
2019-01-21T00:18:33.713Z,62.97
2019-01-21T00:21:03.303Z,67.07
2019-01-21T00:23:32.710Z,61.20
2019-01-21T00:26:02.159Z,62.30
2019-01-21T00:28:31.979Z,66.47
2019-01-21T00:31:01.423Z,61.77
2019-01-21T00:33:30.911Z,63.93
2019-01-21T00:36:00.282Z,66.60
2019-01-21T00:38:29.686Z,68.63
2019-01-21T00:40:59.056Z,70.67
2019-01-21T00:43:28.459Z,77.03
2019-01-21T00:45:57.828Z,75.07
2019-01-21T00:48:27.235Z,86.97
2019-01-21T00:50:56.726Z,84.27
2019-01-21T00:53:26.214Z,84.43
2019-01-21T00:55:55.646Z,97.33
2019-01-21T00:58:25.195Z,101.37
2019-01-21T01:00:55.322Z,99.80
2019-01-21T01:03:24.871Z,109.20
2019-01-21T01:05:54.296Z,101.00
2019-01-21T01:08:23.849Z,107.30
2019-01-21T01:10:54.190Z,110.20
2019-01-21T01:13:23.653Z,110.50
2019-01-21T01:15:53.177Z,118.53
2019-01-21T01:18:22.643Z,111.67
2019-01-21T01:20:52.322Z,118.07
2019-01-21T01:23:21.774Z,120.30
2019-01-21T01:25:52.775Z,118.97
2019-01-21T01:28:22.347Z,119.63
2019-01-21T01:30:51.787Z,114.77
2019-01-21T01:33:21.209Z,125.07
2019-01-21T01:35:50.722Z,118.00
2019-01-21T01:38:20.316Z,118.40
2019-01-21T01:40:49.891Z,120.47
2019-01-21T01:43:19.447Z,114.50
2019-01-21T01:45:49.159Z,123.17
2019-01-21T01:48:18.774Z,111.77
2019-01-21T01:50:51.291Z,114.20
2019-01-21T01:53:21.104Z,102.60
2019-01-21T01:55:50.898Z,103.17
2019-01-21T01:58:20.459Z,106.63
2019-01-21T02:00:52.884Z,105.40
2019-01-21T02:03:22.357Z,100.03
2019-01-21T02:05:51.915Z,100.43
2019-01-21T02:08:21.575Z,99.30
2019-01-21T02:10:51.656Z,100.50
2019-01-21T02:13:21.138Z,97.90
2019-01-21T02:15:50.548Z,93.53
2019-01-21T02:18:20.103Z,96.97
2019-01-21T02:20:54.219Z,84.77
2019-01-21T02:23:27.043Z,79.83
2019-01-21T02:25:58.196Z,73.93
2019-01-21T02:28:39.595Z,74.00
2019-01-21T02:31:47.015Z,81.10
2019-01-21T02:34:25.867Z,86.93
2019-01-21T02:37:13.147Z,84.73
2019-01-21T02:39:57.645Z,82.93
2019-01-21T02:42:39.318Z,90.23
2019-01-21T02:45:17.762Z,90.27
2019-01-21T02:48:02.501Z,90.53
2019-01-21T02:50:40.981Z,91.00
2019-01-21T02:53:44.039Z,94.77
2019-01-21T02:56:19.182Z,95.60
2019-01-21T02:58:57.423Z,97.60
2019-01-21T03:01:46.688Z,87.40
2019-01-21T03:04:35.654Z,94.00
2019-01-21T03:07:23.181Z,95.50
2019-01-21T03:10:13.325Z,100.03
2019-01-21T03:12:52.033Z,92.10
2019-01-21T03:15:30.589Z,89.67
2019-01-21T03:18:28.929Z,95.87
2019-01-21T03:21:07.804Z,94.13
2019-01-21T03:24:13.650Z,85.30
2019-01-21T03:27:02.075Z,90.37
2019-01-21T03:30:03.335Z,90.07
2019-01-21T03:32:43.528Z,93.80
2019-01-21T03:35:27.938Z,95.57
2019-01-21T03:38:18.309Z,88.97
2019-01-21T03:41:05.957Z,91.70
2019-01-21T03:44:01.177Z,81.23
2019-01-21T03:46:50.289Z,85.70
2019-01-21T03:49:35.645Z,84.00
2019-01-21T03:52:43.175Z,79.90
2019-01-21T03:55:15.004Z,80.13
2019-01-21T03:58:02.694Z,79.17
2019-01-21T04:00:40.831Z,77.93
2019-01-21T04:03:24.739Z,73.80
2019-01-21T04:06:00.461Z,67.93
2019-01-21T04:08:42.461Z,77.30
2019-01-21T04:11:19.519Z,72.70
2019-01-21T04:14:10.210Z,69.17
2019-01-21T04:16:51.654Z,67.77
2019-01-21T04:19:39.162Z,73.23
2019-01-21T04:22:26.788Z,66.20
2019-01-21T04:24:59.396Z,72.77
2019-01-21T04:27:37.636Z,74.20
2019-01-21T04:30:19.022Z,68.83
2019-01-21T04:32:54.547Z,73.73
2019-01-21T04:35:47.693Z,71.03
2019-01-21T04:38:50.805Z,67.67
2019-01-21T04:41:44.710Z,76.50
2019-01-21T04:44:23.197Z,73.73
2019-01-21T04:47:20.377Z,74.27
2019-01-21T04:49:58.722Z,69.70
2019-01-21T04:52:46.286Z,73.40
2019-01-21T04:55:30.460Z,75.57
2019-01-21T04:58:22.626Z,71.63
2019-01-21T05:01:04.486Z,70.47
2019-01-21T05:03:42.936Z,71.47
2019-01-21T05:06:21.312Z,70.23
2019-01-21T05:09:08.336Z,81.23
2019-01-21T05:11:52.754Z,72.10
2019-01-21T05:14:31.406Z,79.20
2019-01-21T05:17:06.604Z,77.47
2019-01-21T05:19:57.521Z,78.73
2019-01-21T05:22:32.909Z,77.57
2019-01-21T05:25:08.515Z,80.53
2019-01-21T05:27:50.034Z,77.60
2019-01-21T05:30:31.226Z,85.13
2019-01-21T05:33:23.125Z,82.87
2019-01-21T05:36:13.374Z,83.27
2019-01-21T05:38:48.535Z,84.87
2019-01-21T05:41:29.672Z,91.30
2019-01-21T05:44:18.396Z,86.10
2019-01-21T05:46:59.760Z,85.10
2019-01-21T05:50:07.382Z,85.33
2019-01-21T05:52:56.476Z,83.10
2019-01-21T05:55:37.820Z,86.17
2019-01-21T05:58:43.543Z,84.70
2019-01-21T06:01:35.300Z,86.73
2019-01-21T06:04:16.823Z,90.97
2019-01-21T06:06:55.467Z,93.23
2019-01-21T06:09:33.414Z,92.80
2019-01-21T06:12:18.019Z,87.30
2019-01-21T06:15:10.486Z,94.50
2019-01-21T06:17:52.081Z,86.60
2019-01-21T06:20:32.435Z,89.63
2019-01-21T06:23:36.882Z,96.70
2019-01-21T06:26:42.903Z,107.70
2019-01-21T06:29:27.224Z,113.07
2019-01-21T06:32:10.134Z,118.27
2019-01-21T06:34:48.258Z,109.10
2019-01-21T06:37:32.786Z,108.20
2019-01-21T06:40:29.415Z,108.53
2019-01-21T06:43:10.576Z,100.03
2019-01-21T06:46:01.216Z,100.43
2019-01-21T06:48:51.255Z,100.77
2019-01-21T06:51:39.005Z,99.43
2019-01-21T06:54:38.785Z,105.30
2019-01-21T06:57:34.217Z,95.13
2019-01-21T07:00:36.858Z,94.00
2019-01-21T07:03:35.350Z,93.67
2019-01-21T07:06:15.721Z,93.70
2019-01-21T07:08:51.339Z,93.53
2019-01-21T07:11:39.260Z,92.13
2019-01-21T07:14:11.737Z,93.67
2019-01-21T07:17:07.322Z,88.17
2019-01-21T07:19:51.162Z,90.40
2019-01-21T07:22:23.757Z,86.33
2019-01-21T07:25:20.354Z,87.23
2019-01-21T07:28:09.685Z,87.13
2019-01-21T07:30:42.165Z,94.83
2019-01-21T07:33:31.482Z,90.07
2019-01-21T07:36:22.239Z,92.37
2019-01-21T07:39:00.706Z,92.30
2019-01-21T07:41:45.138Z,90.37
2019-01-21T07:44:23.163Z,89.30
2019-01-21T07:47:18.316Z,91.83
2019-01-21T07:49:54.176Z,87.70
2019-01-21T07:52:43.363Z,88.23
2019-01-21T07:55:31.016Z,93.63
2019-01-21T07:58:22.922Z,89.00
2019-01-21T08:01:01.004Z,88.97
2019-01-21T08:03:42.609Z,97.50
2019-01-21T08:06:24.326Z,92.23
2019-01-21T08:08:59.551Z,95.17
2019-01-21T08:11:37.957Z,96.77
2019-01-21T08:14:13.055Z,90.83
2019-01-21T08:16:48.451Z,97.67
2019-01-21T08:19:28.076Z,99.00
2019-01-21T08:22:28.417Z,101.27
2019-01-21T08:25:07.123Z,102.83
2019-01-21T08:27:56.371Z,102.57
2019-01-21T08:30:46.890Z,105.50
2019-01-21T08:33:43.622Z,96.43
2019-01-21T08:36:19.059Z,102.30
2019-01-21T08:38:57.427Z,99.03
2019-01-21T08:41:32.495Z,96.17
2019-01-21T08:44:14.033Z,92.70
2019-01-21T08:46:59.547Z,93.67
2019-01-21T08:49:32.087Z,96.33
2019-01-21T08:52:07.489Z,90.57
2019-01-21T08:54:43.002Z,88.53
2019-01-21T08:57:22.718Z,92.67
2019-01-21T09:00:14.561Z,83.73
2019-01-21T09:03:07.394Z,89.63
2019-01-21T09:05:51.887Z,77.30
2019-01-21T09:08:30.229Z,83.40
2019-01-21T09:11:17.463Z,79.93
2019-01-21T09:14:01.727Z,75.13
2019-01-21T09:16:46.898Z,73.63
2019-01-21T09:19:25.556Z,76.70
2019-01-21T09:22:03.579Z,71.83
2019-01-21T09:24:58.726Z,69.70
2019-01-21T09:27:40.095Z,66.07
2019-01-21T09:30:30.810Z,66.57
2019-01-21T09:33:03.308Z,65.83
2019-01-21T09:35:43.169Z,57.50
2019-01-21T09:38:21.619Z,64.40
2019-01-21T09:40:56.754Z,64.60
2019-01-21T09:43:29.248Z,60.03
2019-01-21T09:46:03.193Z,61.33
2019-01-21T09:48:31.595Z,64.80
2019-01-21T09:51:04.040Z,62.50
2019-01-21T09:53:35.190Z,60.17
2019-01-21T09:56:05.273Z,59.27
2019-01-21T09:58:35.102Z,62.77
2019-01-21T10:01:04.821Z,65.47
2019-01-21T10:03:34.771Z,67.20
2019-01-21T10:06:06.666Z,63.70
2019-01-21T10:08:39.213Z,62.23
2019-01-21T10:11:46.454Z,56.00
2019-01-21T10:14:24.904Z,61.37
2019-01-21T10:17:00.151Z,61.20
2019-01-21T10:19:35.384Z,57.63
2019-01-21T10:22:20.150Z,56.33
2019-01-21T10:24:55.488Z,55.73
2019-01-21T10:27:30.706Z,54.03
2019-01-21T10:30:18.510Z,53.00
2019-01-21T10:33:27.496Z,51.00
2019-01-21T10:36:16.519Z,53.40
2019-01-21T10:39:04.634Z,49.33
2019-01-21T10:41:49.555Z,52.57
2019-01-21T10:44:24.888Z,52.10
2019-01-21T10:47:00.226Z,55.67
2019-01-21T10:49:35.703Z,52.87
2019-01-21T10:52:29.672Z,55.27
2019-01-21T10:55:05.247Z,54.30
2019-01-21T10:57:46.153Z,56.50
2019-01-21T11:00:42.758Z,55.60
2019-01-21T11:03:52.851Z,53.87
2019-01-21T11:06:49.732Z,57.07
2019-01-21T11:09:31.028Z,52.17
2019-01-21T11:12:18.417Z,55.43
2019-01-21T11:15:11.876Z,56.63
2019-01-21T11:17:50.484Z,54.10
2019-01-21T11:20:45.735Z,57.83
2019-01-21T11:23:36.331Z,56.63
2019-01-21T11:26:31.886Z,56.03
2019-01-21T11:29:25.672Z,54.13
2019-01-21T11:32:17.742Z,53.13
2019-01-21T11:35:12.844Z,50.40
2019-01-21T11:37:46.919Z,50.87
2019-01-21T11:40:37.488Z,50.30
2019-01-21T11:43:44.856Z,49.57
2019-01-21T11:46:38.440Z,49.70
2019-01-21T11:49:23.227Z,48.97
2019-01-21T11:52:17.743Z,46.97
2019-01-21T11:55:11.703Z,44.03
2019-01-21T11:57:53.071Z,46.80
2019-01-21T12:00:43.625Z,43.73
2019-01-21T12:03:23.635Z,45.30
2019-01-21T12:05:55.939Z,41.60
2019-01-21T12:08:56.734Z,43.03
2019-01-21T12:11:41.459Z,44.27
2019-01-21T12:14:25.815Z,43.70
2019-01-21T12:17:19.552Z,43.57
2019-01-21T12:20:06.414Z,41.93
2019-01-21T12:22:50.738Z,43.70
2019-01-21T12:25:29.162Z,40.67
2019-01-21T12:28:24.543Z,40.50
2019-01-21T12:31:02.715Z,42.20
2019-01-21T12:33:51.581Z,39.90
2019-01-21T12:36:24.134Z,38.83
2019-01-21T12:39:09.032Z,39.23
2019-01-21T12:41:47.396Z,37.33
2019-01-21T12:44:19.898Z,36.07
2019-01-21T12:46:58.264Z,38.33
2019-01-21T12:49:36.717Z,36.80
2019-01-21T12:52:15.081Z,39.17
2019-01-21T12:54:56.670Z,34.83
2019-01-21T12:58:02.928Z,35.80
2019-01-21T13:00:58.902Z,37.80
2019-01-21T13:03:47.817Z,37.90
2019-01-21T13:06:47.418Z,39.40
2019-01-21T13:09:47.284Z,39.17
2019-01-21T13:12:34.987Z,38.83
2019-01-21T13:15:35.040Z,37.63
2019-01-21T13:18:16.476Z,38.33
2019-01-21T13:21:06.865Z,40.00
2019-01-21T13:23:39.422Z,37.73
2019-01-21T13:26:32.823Z,37.93
2019-01-21T13:29:24.635Z,37.43
2019-01-21T13:31:59.799Z,39.17
2019-01-21T13:34:47.196Z,41.10
2019-01-21T13:37:39.506Z,38.10
2019-01-21T13:40:20.998Z,38.50
2019-01-21T13:43:01.342Z,39.93
2019-01-21T13:45:42.534Z,39.00
2019-01-21T13:48:15.269Z,37.10
2019-01-21T13:51:08.154Z,38.17
2019-01-21T13:53:46.805Z,37.57
2019-01-21T13:56:28.279Z,37.83
2019-01-21T13:59:23.121Z,39.57
2019-01-21T14:02:04.616Z,38.53
2019-01-21T14:04:40.208Z,37.13
2019-01-21T14:07:41.729Z,40.53
2019-01-21T14:10:38.625Z,41.03
2019-01-21T14:13:35.557Z,42.93
2019-01-21T14:16:23.314Z,43.80
2019-01-21T14:19:01.759Z,45.57
2019-01-21T14:21:52.451Z,48.17
2019-01-21T14:24:40.278Z,47.73
2019-01-21T14:27:30.715Z,51.00
2019-01-21T14:30:36.948Z,48.13
2019-01-21T14:33:24.501Z,52.90
2019-01-21T14:36:00.511Z,54.13
2019-01-21T14:38:35.900Z,54.20
2019-01-21T14:41:20.270Z,54.77
2019-01-21T14:43:52.773Z,52.43
2019-01-21T14:46:25.292Z,53.53
2019-01-21T14:49:04.636Z,56.70
2019-01-21T14:51:52.390Z,56.57
2019-01-21T14:54:30.623Z,54.77
2019-01-21T14:57:25.552Z,55.13
2019-01-21T15:00:16.272Z,50.73
2019-01-21T15:03:03.840Z,53.80
2019-01-21T15:05:57.652Z,48.70
2019-01-21T15:08:30.294Z,49.50
2019-01-21T15:11:08.895Z,55.77
2019-01-21T15:13:53.422Z,54.77
2019-01-21T15:16:47.082Z,58.07
2019-01-21T15:19:23.175Z,60.00
2019-01-21T15:21:55.690Z,61.33
2019-01-21T15:24:44.614Z,64.27
2019-01-21T15:27:32.057Z,63.30
2019-01-21T15:30:10.292Z,70.47
2019-01-21T15:32:59.309Z,72.60
2019-01-21T15:35:40.725Z,85.73
2019-01-21T15:38:25.159Z,77.47
2019-01-21T15:41:00.737Z,85.83
2019-01-21T15:43:36.441Z,82.77
2019-01-21T15:46:23.920Z,80.50
2019-01-21T15:49:05.342Z,83.90
2019-01-21T15:51:37.914Z,82.83
2019-01-21T15:54:18.708Z,81.93
2019-01-21T15:57:09.406Z,80.07
2019-01-21T16:00:00.277Z,75.33
2019-01-21T16:02:34.342Z,74.13
2019-01-21T16:05:12.862Z,80.07
2019-01-21T16:07:45.425Z,72.50
2019-01-21T16:10:29.819Z,70.00
2019-01-21T16:13:03.886Z,72.07
2019-01-21T16:15:52.463Z,68.87
2019-01-21T16:18:27.726Z,79.83
2019-01-21T16:21:03.603Z,81.47
2019-01-21T16:23:38.849Z,80.00
2019-01-21T16:26:08.343Z,83.80
2019-01-21T16:28:40.814Z,77.80
2019-01-21T16:31:16.188Z,80.50
2019-01-21T16:33:51.775Z,80.47
2019-01-21T16:36:43.935Z,78.00
2019-01-21T16:39:21.688Z,74.33
2019-01-21T16:42:15.034Z,81.67
2019-01-21T16:44:46.158Z,86.60
2019-01-21T16:47:15.735Z,92.17
2019-01-21T16:49:45.475Z,86.07
2019-01-21T16:52:15.025Z,80.97
2019-01-21T16:54:44.452Z,84.60
2019-01-21T16:57:13.857Z,89.97
2019-01-21T16:59:43.427Z,98.03
2019-01-21T17:02:14.666Z,97.70
2019-01-21T17:04:44.215Z,104.37
2019-01-21T17:07:13.853Z,96.67
2019-01-21T17:09:43.439Z,92.80
2019-01-21T17:12:12.911Z,83.97
2019-01-21T17:14:42.426Z,81.73
2019-01-21T17:19:41.522Z,77.20
2019-01-21T17:22:10.955Z,79.43
2019-01-21T17:24:40.403Z,87.77
2019-01-21T17:27:09.972Z,97.93
2019-01-21T17:29:39.471Z,107.40
2019-01-21T17:32:09.130Z,103.57
2019-01-21T17:34:38.535Z,118.83
2019-01-21T17:37:07.917Z,119.57
2019-01-21T17:39:37.464Z,126.23
2019-01-21T17:42:07.127Z,119.67
2019-01-21T17:44:36.605Z,126.60
2019-01-21T17:47:06.137Z,131.50
2019-01-21T17:49:37.031Z,132.60
2019-01-21T17:52:06.506Z,130.63
2019-01-21T17:54:36.687Z,127.00
2019-01-21T17:57:06.378Z,132.37
2019-01-21T17:59:35.872Z,122.37
2019-01-21T18:02:07.178Z,122.60
2019-01-21T18:04:36.671Z,117.53
2019-01-21T18:07:06.334Z,122.63
2019-01-21T18:09:35.747Z,115.97
2019-01-21T18:12:05.533Z,129.10
2019-01-21T18:14:35.097Z,125.47
2019-01-21T18:17:04.557Z,124.23
2019-01-21T18:19:34.115Z,123.40
2019-01-21T18:22:03.566Z,123.30
2019-01-21T18:24:32.984Z,119.20
2019-01-21T18:27:02.458Z,114.13
2019-01-21T18:29:32.030Z,115.80
2019-01-21T18:32:01.586Z,115.57
2019-01-21T18:34:31.026Z,119.80
2019-01-21T18:37:01.948Z,119.60
2019-01-21T18:39:31.472Z,122.10
2019-01-21T18:42:01.014Z,121.07
2019-01-21T18:44:30.394Z,125.20
2019-01-21T18:46:59.879Z,129.23
2019-01-21T18:49:29.248Z,124.70
2019-01-21T18:51:58.718Z,125.00
2019-01-21T18:54:28.153Z,128.57
2019-01-21T18:56:57.572Z,127.83
2019-01-21T18:59:27.016Z,131.20
2019-01-21T19:01:56.503Z,135.00
2019-01-21T19:04:27.560Z,129.73
2019-01-21T19:06:57.049Z,134.80
2019-01-21T19:09:26.527Z,139.97
2019-01-21T19:11:56.006Z,133.97
2019-01-21T19:14:25.759Z,141.77
2019-01-21T19:16:55.253Z,136.13
2019-01-21T19:19:24.699Z,141.87
2019-01-21T19:21:54.136Z,144.80
2019-01-21T19:24:23.683Z,141.57
2019-01-21T19:26:53.104Z,136.30
2019-01-21T19:29:22.545Z,138.40
2019-01-21T19:31:52.329Z,135.07
2019-01-21T19:34:21.723Z,139.67
2019-01-21T19:36:52.787Z,140.03
2019-01-21T19:39:22.235Z,139.33
2019-01-21T19:41:51.638Z,141.27
2019-01-21T19:44:21.049Z,145.97
2019-01-21T19:46:50.591Z,142.60
2019-01-21T19:49:19.982Z,144.30
2019-01-21T19:51:49.471Z,153.43
2019-01-21T19:54:18.852Z,147.77
2019-01-21T19:56:48.481Z,145.67
2019-01-21T19:59:17.962Z,144.07
2019-01-21T20:01:47.424Z,138.50
2019-01-21T20:04:17.140Z,135.17
2019-01-21T20:06:46.686Z,140.53
2019-01-21T20:09:16.515Z,134.17
2019-01-21T20:11:46.446Z,131.63
2019-01-21T20:14:15.999Z,118.10
2019-01-21T20:16:45.486Z,122.43
2019-01-21T20:19:14.890Z,116.63
2019-01-21T20:21:44.359Z,113.43
2019-01-21T20:24:13.776Z,118.03
2019-01-21T20:26:43.266Z,125.83
2019-01-21T20:29:12.809Z,121.80
2019-01-21T20:31:42.302Z,127.73
2019-01-21T20:34:11.823Z,126.57
2019-01-21T20:36:41.291Z,128.77
2019-01-21T20:39:10.839Z,123.17
2019-01-21T20:41:40.314Z,121.27
2019-01-21T20:44:09.788Z,119.07
2019-01-21T20:46:39.200Z,120.67
2019-01-21T20:49:08.592Z,124.60
2019-01-21T20:51:38.151Z,121.70
2019-01-21T20:54:09.396Z,123.10
2019-01-21T20:56:38.870Z,122.50
2019-01-21T20:59:08.352Z,123.17
2019-01-21T21:01:37.910Z,122.70
2019-01-21T21:04:07.466Z,126.73
2019-01-21T21:06:36.884Z,125.10
2019-01-21T21:09:08.258Z,128.13
2019-01-21T21:11:37.678Z,121.60
2019-01-21T21:14:07.150Z,126.10
2019-01-21T21:16:36.838Z,123.80
2019-01-21T21:19:06.301Z,128.20
2019-01-21T21:21:35.771Z,121.37
2019-01-21T21:24:05.305Z,124.90
2019-01-21T21:26:36.478Z,121.40
2019-01-21T21:29:05.957Z,120.17
2019-01-21T21:31:35.526Z,120.87
2019-01-21T21:34:05.284Z,122.33
2019-01-21T21:36:34.744Z,128.93
2019-01-21T21:39:06.619Z,125.20
2019-01-21T21:41:36.151Z,119.50
2019-01-21T21:44:05.693Z,127.33
2019-01-21T21:46:35.144Z,128.80
2019-01-21T21:49:04.768Z,122.10
2019-01-21T21:51:34.229Z,123.17
2019-01-21T21:54:03.864Z,119.77
2019-01-21T21:56:33.339Z,124.70
2019-01-21T21:59:02.806Z,116.50
2019-01-21T22:01:32.479Z,112.40
2019-01-21T22:04:02.231Z,116.20
2019-01-21T22:06:31.714Z,119.80
2019-01-21T22:09:01.194Z,114.63
2019-01-21T22:11:30.679Z,113.53
2019-01-21T22:14:00.439Z,111.70
2019-01-21T22:16:30.098Z,103.90
2019-01-21T22:18:59.577Z,114.27
2019-01-21T22:21:29.139Z,107.97
2019-01-21T22:23:58.645Z,104.93
2019-01-21T22:26:28.552Z,106.90
2019-01-21T22:28:58.035Z,101.60
2019-01-21T22:31:27.523Z,101.50
2019-01-21T22:33:57.063Z,102.20
2019-01-21T22:36:28.142Z,96.20
2019-01-21T22:38:57.602Z,99.23
2019-01-21T22:41:27.072Z,98.47
2019-01-21T22:43:56.731Z,94.40
2019-01-21T22:46:26.261Z,96.77
2019-01-21T22:48:55.730Z,100.17
2019-01-21T22:51:25.221Z,99.57
2019-01-21T22:53:54.905Z,97.53
2019-01-21T22:56:24.639Z,89.30
2019-01-21T22:58:54.203Z,96.67
2019-01-21T23:01:25.510Z,88.63
2019-01-21T23:03:55.182Z,87.90
2019-01-21T23:06:24.795Z,85.70
2019-01-21T23:08:54.395Z,87.70
2019-01-21T23:11:23.981Z,90.20
2019-01-21T23:13:53.456Z,88.97
2019-01-21T23:16:22.996Z,88.97
2019-01-21T23:18:52.680Z,84.90
2019-01-21T23:21:22.232Z,81.47
2019-01-21T23:23:51.710Z,82.97
2019-01-21T23:26:21.174Z,80.77
2019-01-21T23:28:50.644Z,82.60
2019-01-21T23:31:20.144Z,84.73
2019-01-21T23:33:51.177Z,85.23
2019-01-21T23:36:20.726Z,84.33
2019-01-21T23:38:50.302Z,83.00
2019-01-21T23:41:22.933Z,82.00
2019-01-21T23:43:52.545Z,85.73
2019-01-21T23:46:22.191Z,78.57
2019-01-21T23:48:51.646Z,81.23
2019-01-21T23:51:21.192Z,74.57
2019-01-21T23:53:51.067Z,74.67
2019-01-21T23:56:20.718Z,70.83
2019-01-21T23:58:50.277Z,74.33
